To NAV CANADA Home Page Login to a new session Search on AWWS site Feedback and Comments Disclaimer Vers la page française équivalente Tips FAQ What's new on the site To the Forecasts and Observations / NOTAM section To "File a Flight Plan" website Publications and other links Update of the User's profile FIC Telephone Numbers My Weather Data Folder Route Weather Data Regional Weather Data Local Weather Data To the Forecasts and Observations / NOTAM section
Request Generated 08/01/2015 at 01:25:31 UTC . Weather information available at that time is displayed.

METAR/TAF

WINNIPEG/JAMES ARMSTRONG RICHARDSON INTL/MB    

METAR CYWG 010100Z 29005KT 15SM FEW050 FEW100 22/15 A2993 RMK CU1AC1
AC TR SLP138 DENSITY ALT 1700FT=
METAR CYWG 010000Z 31009KT 15SM FEW050 FEW095 24/13 A2994 RMK CU1AC1
SLP140 DENSITY ALT 1900FT=
METAR CYWG 312300Z 32012G17KT 15SM FEW050 24/12 A2995 RMK CU1 SLP144
DENSITY ALT 1900FT=

TAF CYWG 312338Z 0100/0124 32012G22KT P6SM FEW050
BECMG 0100/0102 30010KT
FM010800 22008KT P6SM SKC
BECMG 0116/0118 28015KT
FM012200 35010KT P6SM SCT060 PROB30 0122/0124 5SM TSRA BKN060CB
RMK NXT FCST BY 010600Z=
Your time UTC time
Weather data provided by Environment Canada and NAV CANADA